Time;durP1;ratioP1;P1;durP2;ratioP2;P2;SDS_P1;SDS_P2;PMS_P1;PMS_P2;Temp;Humidity;BMP_temperature;BMP_pressure;BME280_temperature;BME280_humidity;BME280_pressure;Samples;Min_cycle;Max_cycle;Signal;HPM_P1;HPM_P2
2021/07/06 00:02:12;;;;;;;4.40;4.00;;;15.10;99.90;;;;;;5074727;28;20602;-93
2021/07/06 00:04:40;;;;;;;4.17;3.40;;;15.00;99.90;;;;;;5075226;28;20629;-95
2021/07/06 00:07:15;;;;;;;4.60;3.60;;;14.90;99.90;;;;;;5043209;28;20617;-94
2021/07/06 00:09:42;;;;;;;4.47;3.60;;;15.00;99.90;;;;;;5069055;28;20660;-92
2021/07/06 00:12:10;;;;;;;5.93;4.00;;;15.00;99.90;;;;;;5083226;28;20641;-92
2021/07/06 00:14:37;;;;;;;4.20;3.80;;;15.00;99.90;;;;;;5074090;28;20611;-91
2021/07/06 00:17:05;;;;;;;4.17;3.77;;;15.00;99.90;;;;;;5060331;28;20634;-91
2021/07/06 00:19:32;;;;;;;5.60;3.80;;;15.00;99.90;;;;;;5080389;28;20688;-92
2021/07/06 00:21:59;;;;;;;5.40;3.20;;;14.90;99.90;;;;;;5065374;28;20980;-92
2021/07/06 00:24:26;;;;;;;6.60;3.47;;;14.90;99.90;;;;;;5060647;28;20616;-91
2021/07/06 00:26:59;;;;;;;4.83;3.70;;;14.90;99.90;;;;;;5068897;28;20716;-90
2021/07/06 00:29:27;;;;;;;4.00;3.60;;;14.90;99.90;;;;;;5065222;28;20643;-92
2021/07/06 00:31:54;;;;;;;4.10;3.70;;;14.80;99.90;;;;;;5060484;28;20642;-90
2021/07/06 00:34:21;;;;;;;3.60;3.30;;;14.90;99.90;;;;;;5055845;28;20622;-93
2021/07/06 00:36:50;;;;;;;4.83;4.17;;;14.90;99.90;;;;;;5057110;28;20606;-87
2021/07/06 00:39:17;;;;;;;3.87;3.57;;;14.90;99.90;;;;;;5041047;28;20997;-87
2021/07/06 00:41:45;;;;;;;3.83;3.53;;;14.80;99.90;;;;;;5050863;28;20630;-88
2021/07/06 00:44:14;;;;;;;3.53;3.23;;;14.80;99.90;;;;;;5051390;28;20630;-88
2021/07/06 00:46:44;;;;;;;5.17;3.70;;;14.80;99.90;;;;;;5053706;28;20626;-88
2021/07/06 00:49:11;;;;;;;3.47;3.23;;;14.80;99.90;;;;;;5051524;28;20634;-88
2021/07/06 00:51:39;;;;;;;3.60;3.30;;;14.70;99.90;;;;;;5048044;28;20664;-87
2021/07/06 00:54:07;;;;;;;3.67;3.33;;;14.80;99.90;;;;;;5048845;28;20656;-88
2021/07/06 00:56:35;;;;;;;3.50;3.20;;;14.70;99.90;;;;;;5047875;28;21418;-87
2021/07/06 00:59:04;;;;;;;3.33;3.13;;;14.70;99.90;;;;;;5049496;28;20626;-90
2021/07/06 01:01:31;;;;;;;4.90;4.40;;;14.70;99.90;;;;;;5045316;28;21001;-87
2021/07/06 01:04:00;;;;;;;6.03;4.00;;;14.80;99.90;;;;;;5047843;28;20653;-88
2021/07/06 01:06:27;;;;;;;6.63;4.53;;;14.80;99.90;;;;;;5050704;28;20622;-88
2021/07/06 01:08:54;;;;;;;4.10;3.80;;;14.80;99.90;;;;;;5047682;28;20638;-87
2021/07/06 01:11:21;;;;;;;4.37;4.00;;;14.90;99.90;;;;;;5045675;28;20618;-88
2021/07/06 01:13:48;;;;;;;4.03;3.73;;;14.90;99.90;;;;;;5044110;28;20688;-89
2021/07/06 01:16:15;;;;;;;4.83;4.37;;;14.90;99.90;;;;;;5048251;28;20716;-87
2021/07/06 01:18:42;;;;;;;7.00;4.20;;;14.80;99.90;;;;;;5041939;28;20630;-88
2021/07/06 01:21:11;;;;;;;4.63;4.03;;;14.70;99.90;;;;;;5050489;28;20636;-89
2021/07/06 01:23:40;;;;;;;4.20;3.80;;;14.70;99.90;;;;;;5046119;28;21004;-87
2021/07/06 01:26:09;;;;;;;4.17;3.50;;;14.70;99.90;;;;;;5047365;28;20630;-87
2021/07/06 01:28:39;;;;;;;4.67;3.80;;;14.60;99.90;;;;;;5049858;28;20638;-87
2021/07/06 01:31:06;;;;;;;3.60;3.30;;;14.60;99.90;;;;;;5046839;28;20683;-87
2021/07/06 01:33:34;;;;;;;3.50;3.20;;;14.70;99.90;;;;;;5048545;28;20670;-87
2021/07/06 01:36:05;;;;;;;4.73;3.50;;;14.70;99.90;;;;;;5040288;28;20602;-88
2021/07/06 01:38:32;;;;;;;4.03;3.30;;;14.70;99.90;;;;;;5044331;28;20732;-88
2021/07/06 01:41:01;;;;;;;4.83;3.30;;;14.60;99.90;;;;;;5036976;28;21185;-87
2021/07/06 01:43:28;;;;;;;3.33;3.13;;;14.60;99.90;;;;;;5047066;28;20649;-88
2021/07/06 01:45:55;;;;;;;6.73;4.03;;;14.70;99.90;;;;;;5048253;28;20622;-88
2021/07/06 01:48:21;;;;;;;3.83;3.40;;;14.70;99.90;;;;;;5044329;28;21007;-89
2021/07/06 01:50:49;;;;;;;3.80;3.50;;;14.70;99.90;;;;;;5059960;28;20644;-88
2021/07/06 01:53:17;;;;;;;4.30;4.00;;;14.60;99.90;;;;;;5049733;28;20670;-88
2021/07/06 01:55:46;;;;;;;3.70;3.50;;;14.70;99.90;;;;;;5046225;28;20723;-88
2021/07/06 01:58:16;;;;;;;4.60;3.60;;;14.60;99.90;;;;;;5055028;28;20625;-88
2021/07/06 02:00:46;;;;;;;4.33;3.93;;;14.60;99.90;;;;;;5049396;28;21112;-88
2021/07/06 02:03:13;;;;;;;4.83;4.23;;;14.60;99.90;;;;;;5048324;28;20654;-88
2021/07/06 02:05:41;;;;;;;5.87;3.60;;;14.60;99.90;;;;;;5047673;28;20629;-88
2021/07/06 02:08:09;;;;;;;5.33;3.33;;;14.70;99.90;;;;;;5054611;28;21411;-88
2021/07/06 02:10:38;;;;;;;4.47;3.50;;;14.60;99.90;;;;;;5047778;28;20651;-88
2021/07/06 02:13:08;;;;;;;6.40;3.70;;;14.60;99.90;;;;;;5050139;28;21585;-87
2021/07/06 02:15:37;;;;;;;6.00;3.73;;;14.60;99.90;;;;;;5050497;28;20978;-87
2021/07/06 02:18:04;;;;;;;4.10;3.70;;;14.50;99.90;;;;;;5041624;28;20654;-87
2021/07/06 02:20:30;;;;;;;3.90;3.60;;;14.60;99.90;;;;;;5045194;28;20636;-87
2021/07/06 02:22:57;;;;;;;4.03;3.60;;;14.50;99.90;;;;;;5044722;28;20641;-86
2021/07/06 02:25:24;;;;;;;4.10;3.80;;;14.50;99.90;;;;;;5046313;28;20623;-87
2021/07/06 02:27:51;;;;;;;5.80;3.47;;;14.50;99.90;;;;;;5050740;28;20626;-87
2021/07/06 02:30:20;;;;;;;4.63;3.50;;;14.50;99.90;;;;;;5042828;28;21198;-87
2021/07/06 02:32:50;;;;;;;4.00;3.60;;;14.50;99.90;;;;;;5043409;28;20662;-87
2021/07/06 02:35:17;;;;;;;13.57;3.90;;;14.50;99.90;;;;;;5042212;28;21169;-87
2021/07/06 02:37:47;;;;;;;8.00;4.03;;;14.40;99.90;;;;;;5045163;28;20646;-87
2021/07/06 02:40:16;;;;;;;4.03;3.70;;;14.40;99.90;;;;;;5045124;28;20587;-87
2021/07/06 02:42:43;;;;;;;4.43;3.10;;;14.40;99.90;;;;;;5042606;28;20630;-87
2021/07/06 02:45:12;;;;;;;4.20;3.80;;;14.40;99.90;;;;;;5045173;28;20630;-87
2021/07/06 02:47:38;;;;;;;4.03;3.33;;;14.40;99.90;;;;;;5048948;28;20629;-87
2021/07/06 02:50:09;;;;;;;4.37;3.70;;;14.40;99.90;;;;;;5053138;28;20634;-88
2021/07/06 02:52:36;;;;;;;3.80;3.57;;;14.40;99.90;;;;;;5053428;28;20628;-87
2021/07/06 02:55:04;;;;;;;3.30;3.10;;;14.30;99.90;;;;;;5049358;28;20632;-87
2021/07/06 02:57:37;;;;;;;2.87;2.67;;;14.40;99.90;;;;;;5047983;28;20629;-87
2021/07/06 03:00:13;;;;;;;7.77;3.80;;;14.40;99.90;;;;;;5044742;28;20624;-88
2021/07/06 03:02:41;;;;;;;4.83;3.63;;;14.30;99.90;;;;;;5049160;28;20639;-87
2021/07/06 03:05:11;;;;;;;3.20;3.00;;;14.20;99.90;;;;;;5047828;28;20635;-88
2021/07/06 03:07:39;;;;;;;3.73;3.30;;;14.30;99.90;;;;;;5048878;28;20657;-88
2021/07/06 03:10:08;;;;;;;4.20;3.70;;;14.40;99.90;;;;;;5049343;28;20641;-88
2021/07/06 03:12:35;;;;;;;5.40;3.33;;;14.30;99.90;;;;;;5055522;28;20638;-88
2021/07/06 03:15:02;;;;;;;3.87;3.40;;;14.40;99.90;;;;;;5050461;28;20637;-88
2021/07/06 03:17:29;;;;;;;5.23;3.57;;;14.30;99.90;;;;;;5051408;28;20582;-88
2021/07/06 03:19:56;;;;;;;4.00;3.60;;;14.30;99.90;;;;;;5050876;28;20726;-88
2021/07/06 03:22:24;;;;;;;5.00;3.30;;;14.30;99.90;;;;;;5054218;28;20662;-88
2021/07/06 03:24:51;;;;;;;4.10;3.50;;;14.30;99.90;;;;;;5053617;28;20654;-87
2021/07/06 03:27:18;;;;;;;5.30;3.83;;;14.30;99.90;;;;;;5053344;28;20610;-88
2021/07/06 03:29:45;;;;;;;4.20;3.70;;;14.30;99.90;;;;;;5056324;28;20629;-88
2021/07/06 03:32:12;;;;;;;6.30;4.27;;;14.30;99.90;;;;;;5051926;28;20609;-87
2021/07/06 03:34:39;;;;;;;4.33;3.67;;;14.30;99.90;;;;;;5050085;28;20776;-88
2021/07/06 03:37:07;;;;;;;6.33;3.57;;;14.40;99.90;;;;;;5054658;28;21173;-86
2021/07/06 03:39:36;;;;;;;4.20;3.77;;;14.40;99.90;;;;;;5040194;28;20627;-88
2021/07/06 03:42:03;;;;;;;4.50;3.77;;;14.40;99.90;;;;;;5052310;28;21035;-88
2021/07/06 03:44:30;;;;;;;5.00;3.87;;;14.40;99.90;;;;;;5053801;28;20649;-87
2021/07/06 03:46:57;;;;;;;4.00;3.60;;;14.40;99.90;;;;;;5032176;28;20629;-87
2021/07/06 03:49:25;;;;;;;3.87;3.27;;;14.30;99.90;;;;;;5055813;28;20662;-88
2021/07/06 03:51:52;;;;;;;3.77;3.43;;;14.30;99.90;;;;;;5043123;28;20623;-88
2021/07/06 03:54:19;;;;;;;6.40;3.30;;;14.30;99.90;;;;;;5044419;28;20698;-87
2021/07/06 03:56:47;;;;;;;3.90;3.60;;;14.30;99.90;;;;;;5044863;28;20626;-88
2021/07/06 03:59:14;;;;;;;4.87;3.20;;;14.40;99.90;;;;;;5039047;28;20633;-89
2021/07/06 04:01:41;;;;;;;3.23;3.00;;;14.40;99.90;;;;;;5046400;28;20972;-89
2021/07/06 04:04:08;;;;;;;3.80;3.17;;;14.30;99.90;;;;;;5050782;28;20858;-89
2021/07/06 04:06:34;;;;;;;3.70;3.40;;;14.40;99.90;;;;;;5049897;28;20618;-88
2021/07/06 04:09:01;;;;;;;3.73;3.00;;;14.50;99.90;;;;;;5047794;28;20660;-90
2021/07/06 04:11:28;;;;;;;3.57;3.27;;;14.50;99.90;;;;;;5046410;28;20669;-89
2021/07/06 04:13:59;;;;;;;4.13;3.23;;;14.50;99.90;;;;;;5042684;28;20743;-89
2021/07/06 04:16:26;;;;;;;3.00;2.80;;;14.60;99.90;;;;;;5050248;28;20630;-90
2021/07/06 04:18:54;;;;;;;3.27;3.00;;;14.60;99.90;;;;;;5039549;28;20693;-89
2021/07/06 04:21:20;;;;;;;6.83;3.20;;;14.70;99.90;;;;;;5051116;28;21083;-89
2021/07/06 04:23:47;;;;;;;3.40;3.17;;;14.80;99.90;;;;;;5042252;28;20642;-88
2021/07/06 04:26:14;;;;;;;3.57;3.37;;;14.90;99.90;;;;;;5045827;28;20625;-89
2021/07/06 04:28:42;;;;;;;4.50;4.00;;;15.00;99.90;;;;;;5050042;28;20643;-88
2021/07/06 04:31:10;;;;;;;3.97;3.60;;;15.10;99.90;;;;;;5038414;28;20624;-88
2021/07/06 04:33:37;;;;;;;8.17;3.37;;;15.10;99.90;;;;;;5040638;28;20681;-88
2021/07/06 04:36:06;;;;;;;7.53;3.33;;;15.10;99.90;;;;;;5046929;28;20670;-88
2021/07/06 04:38:32;;;;;;;4.37;2.80;;;15.10;99.90;;;;;;5047478;28;20649;-87
2021/07/06 04:40:59;;;;;;;4.37;3.70;;;15.20;99.90;;;;;;5045640;28;20637;-88
2021/07/06 04:43:26;;;;;;;5.73;3.10;;;15.20;99.90;;;;;;5047875;28;21308;-88
2021/07/06 04:45:53;;;;;;;4.40;3.20;;;15.30;99.90;;;;;;5039322;28;20980;-87
2021/07/06 04:48:21;;;;;;;3.33;3.03;;;15.40;99.90;;;;;;5042584;28;20613;-87
2021/07/06 04:50:48;;;;;;;7.03;2.53;;;15.50;99.90;;;;;;5048643;28;20995;-88
2021/07/06 04:53:16;;;;;;;3.50;3.20;;;15.70;99.90;;;;;;5045852;28;20654;-88
2021/07/06 04:55:43;;;;;;;2.73;2.50;;;15.80;99.90;;;;;;5049113;28;21057;-88
2021/07/06 04:58:10;;;;;;;6.10;2.87;;;16.00;99.90;;;;;;5043910;28;20623;-89
2021/07/06 05:00:38;;;;;;;6.77;2.93;;;16.00;99.90;;;;;;5044522;28;20631;-89
2021/07/06 05:03:05;;;;;;;3.93;3.40;;;16.20;99.90;;;;;;5051445;28;20649;-89
2021/07/06 05:05:57;;;;;;;2.57;2.37;;;16.40;99.90;;;;;;5042641;28;20641;-95
2021/07/06 05:08:24;;;;;;;4.50;2.03;;;16.60;99.90;;;;;;5056842;28;20628;-95
2021/07/06 05:53:54;;;;;;;1.70;1.60;;;18.10;99.90;;;;;;1118078;22;22266;-94
2021/07/06 05:56:22;;;;;;;6.73;1.67;;;18.40;99.90;;;;;;5017641;28;20631;-94
2021/07/06 05:58:51;;;;;;;2.60;2.10;;;18.60;99.90;;;;;;4999469;28;20769;-92
2021/07/06 06:01:18;;;;;;;1.60;1.40;;;18.70;99.90;;;;;;5004804;28;21018;-93
2021/07/06 06:03:47;;;;;;;1.83;1.63;;;18.80;99.90;;;;;;4999319;28;20676;-95
2021/07/06 06:06:16;;;;;;;3.00;1.60;;;18.90;99.90;;;;;;4991888;28;20662;-93
2021/07/06 06:08:45;;;;;;;1.33;1.23;;;19.10;99.90;;;;;;4990944;28;20640;-94
2021/07/06 06:11:15;;;;;;;2.63;1.40;;;19.30;99.90;;;;;;4987495;28;21062;-95
2021/07/06 06:13:42;;;;;;;2.77;1.57;;;19.30;99.90;;;;;;4986339;28;20780;-93
2021/07/06 06:16:14;;;;;;;5.20;1.63;;;19.40;99.90;;;;;;4992885;28;20640;-95
2021/07/06 06:18:55;;;;;;;1.93;1.40;;;19.50;99.90;;;;;;4985422;28;20700;-94
2021/07/06 06:21:23;;;;;;;1.50;1.40;;;19.50;99.90;;;;;;4991153;28;20636;-95
2021/07/06 06:23:51;;;;;;;2.33;1.60;;;19.70;99.90;;;;;;4994834;28;20660;-94
2021/07/06 06:26:23;;;;;;;2.97;1.93;;;19.80;99.90;;;;;;4993795;28;20640;-94
2021/07/06 06:28:50;;;;;;;5.80;1.47;;;20.00;99.90;;;;;;4992926;28;20769;-95
2021/07/06 06:31:18;;;;;;;3.57;1.50;;;20.30;99.90;;;;;;4994187;28;20646;-95
2021/07/06 06:33:46;;;;;;;2.13;1.30;;;20.50;99.90;;;;;;4993013;28;20664;-94
2021/07/06 06:36:13;;;;;;;1.57;1.47;;;20.60;99.90;;;;;;4988649;28;20617;-96
2021/07/06 06:38:40;;;;;;;1.73;1.43;;;20.80;99.90;;;;;;4988488;28;20664;-95
2021/07/06 06:41:07;;;;;;;2.70;1.63;;;21.00;99.90;;;;;;4985362;28;21042;-95
2021/07/06 06:43:35;;;;;;;1.37;1.23;;;21.20;99.90;;;;;;4986070;28;20634;-94
2021/07/06 06:46:04;;;;;;;2.53;1.30;;;21.40;99.90;;;;;;4987284;28;20625;-95
2021/07/06 06:48:31;;;;;;;1.27;1.13;;;21.40;99.90;;;;;;4988910;28;20644;-96
2021/07/06 06:51:01;;;;;;;2.17;1.00;;;21.50;99.90;;;;;;4987594;28;20633;-95
2021/07/06 06:53:28;;;;;;;1.20;1.10;;;21.70;99.90;;;;;;4989445;28;20645;-95
2021/07/06 06:55:55;;;;;;;2.33;1.50;;;21.90;99.90;;;;;;4986762;28;20762;-95
2021/07/06 06:58:23;;;;;;;5.20;1.30;;;22.00;99.90;;;;;;4988197;28;20643;-95
2021/07/06 07:00:53;;;;;;;2.80;1.20;;;22.10;99.90;;;;;;4993996;28;20730;-96
2021/07/06 07:03:21;;;;;;;2.83;1.63;;;22.30;99.90;;;;;;4992194;28;20636;-96
2021/07/06 07:05:50;;;;;;;1.47;1.37;;;22.20;99.90;;;;;;4989379;28;21176;-95
2021/07/06 07:08:18;;;;;;;2.67;1.03;;;22.30;99.90;;;;;;4993785;28;20657;-95
2021/07/06 07:10:46;;;;;;;2.30;1.07;;;22.30;99.90;;;;;;4998708;28;20664;-95
2021/07/06 07:13:15;;;;;;;2.60;1.60;;;22.50;99.90;;;;;;5001450;28;20757;-95
2021/07/06 07:15:42;;;;;;;4.50;1.73;;;22.60;99.90;;;;;;4992693;28;20664;-95
2021/07/06 07:18:11;;;;;;;5.80;1.63;;;22.80;99.90;;;;;;5008130;28;20652;-94
2021/07/06 07:20:39;;;;;;;3.33;1.57;;;23.20;99.90;;;;;;5012866;28;20669;-96
2021/07/06 07:23:06;;;;;;;1.90;1.60;;;23.20;99.90;;;;;;5010833;28;20712;-95
2021/07/06 07:25:33;;;;;;;1.87;1.00;;;23.30;99.90;;;;;;5010680;28;20697;-95
2021/07/06 07:28:00;;;;;;;3.73;1.60;;;23.30;99.90;;;;;;5007794;28;20632;-95
2021/07/06 07:30:28;;;;;;;1.20;1.10;;;23.30;99.90;;;;;;5001163;28;20945;-95
2021/07/06 07:32:55;;;;;;;4.50;1.40;;;23.60;99.90;;;;;;4984435;28;20684;-94
2021/07/06 07:35:41;;;;;;;2.00;1.37;;;23.80;99.90;;;;;;4998007;28;20958;-96
2021/07/06 07:38:12;;;;;;;1.50;1.40;;;24.30;99.90;;;;;;5000139;28;20645;-96
2021/07/06 07:40:40;;;;;;;3.60;1.60;;;24.10;99.90;;;;;;4994887;28;20679;-96
2021/07/06 07:43:08;;;;;;;2.93;1.03;;;24.10;99.90;;;;;;4989171;28;20656;-96
2021/07/06 07:45:36;;;;;;;1.87;1.10;;;24.00;99.90;;;;;;4990264;28;21159;-95
2021/07/06 07:48:04;;;;;;;2.60;1.23;;;24.10;99.90;;;;;;4985693;28;20632;-95
2021/07/06 07:50:33;;;;;;;1.97;1.40;;;24.20;99.90;;;;;;4987691;28;20662;-96
2021/07/06 07:53:03;;;;;;;1.67;1.20;;;24.40;99.90;;;;;;4992716;28;20636;-96
2021/07/06 07:55:33;;;;;;;1.63;1.53;;;24.70;99.90;;;;;;4990030;28;21337;-96
2021/07/06 07:58:01;;;;;;;2.50;1.47;;;25.20;99.90;;;;;;4986251;28;20735;-95
2021/07/06 08:00:28;;;;;;;3.90;1.33;;;25.10;99.90;;;;;;4984065;28;20664;-95
2021/07/06 08:02:58;;;;;;;2.33;1.40;;;25.20;99.90;;;;;;4993411;28;21247;-96
2021/07/06 08:05:26;;;;;;;6.27;1.20;;;25.10;99.90;;;;;;4990318;28;20679;-96
2021/07/06 08:07:55;;;;;;;5.30;1.43;;;25.10;99.90;;;;;;4993061;28;21266;-96
2021/07/06 08:10:22;;;;;;;3.57;1.13;;;25.10;99.90;;;;;;4985483;28;20692;-96
2021/07/06 08:12:49;;;;;;;1.47;1.37;;;25.10;99.90;;;;;;4987335;28;20629;-94
2021/07/06 08:15:16;;;;;;;6.17;1.60;;;25.10;99.90;;;;;;4985229;28;20767;-93
2021/07/06 08:17:44;;;;;;;1.97;1.27;;;25.20;99.90;;;;;;4990531;28;21008;-93
2021/07/06 08:20:13;;;;;;;2.37;1.13;;;25.30;99.90;;;;;;4988113;28;20663;-96
2021/07/06 08:22:41;;;;;;;4.50;1.40;;;25.00;99.90;;;;;;4986201;28;20671;-94
2021/07/06 08:25:11;;;;;;;6.70;1.80;;;24.90;99.90;;;;;;4983468;28;20637;-96
2021/07/06 08:27:40;;;;;;;5.23;1.07;;;25.10;99.90;;;;;;4996922;28;20656;-95
2021/07/06 08:30:10;;;;;;;3.07;1.50;;;25.30;99.90;;;;;;4995054;28;21055;-94
2021/07/06 08:32:37;;;;;;;2.90;1.40;;;25.60;99.90;;;;;;4997608;28;20664;-96
2021/07/06 08:35:07;;;;;;;2.23;1.20;;;25.90;99.90;;;;;;4998686;28;20691;-96
2021/07/06 08:37:35;;;;;;;1.20;1.10;;;26.00;99.90;;;;;;4991202;28;20621;-96
2021/07/06 08:40:04;;;;;;;1.67;1.03;;;26.20;99.90;;;;;;4986985;28;20656;-95
2021/07/06 08:42:33;;;;;;;6.47;1.13;;;26.10;99.90;;;;;;4989040;28;20624;-95
2021/07/06 08:45:00;;;;;;;3.10;2.20;;;26.20;99.90;;;;;;4990554;28;20628;-96
2021/07/06 08:47:30;;;;;;;1.40;1.30;;;26.20;99.90;;;;;;4986861;28;20713;-95
2021/07/06 08:49:57;;;;;;;1.10;1.00;;;26.40;99.90;;;;;;4987169;28;20669;-95
2021/07/06 08:52:25;;;;;;;2.07;1.20;;;26.40;99.90;;;;;;4988779;28;20648;-96
2021/07/06 08:54:52;;;;;;;1.53;1.03;;;26.70;99.90;;;;;;4990045;28;20776;-96
2021/07/06 08:57:21;;;;;;;1.57;1.07;;;26.80;99.90;;;;;;4997170;28;20670;-96
2021/07/06 08:59:50;;;;;;;1.00;0.80;;;27.10;99.90;;;;;;4993673;28;21063;-96
2021/07/06 09:02:22;;;;;;;1.03;0.97;;;27.20;99.90;;;;;;4992968;28;20667;-96
2021/07/06 09:04:50;;;;;;;1.53;1.43;;;27.20;99.90;;;;;;4990417;28;20628;-96
2021/07/06 09:07:21;;;;;;;1.27;0.70;;;27.50;99.90;;;;;;4990291;28;20628;-96
2021/07/06 09:09:50;;;;;;;4.60;1.40;;;27.60;99.90;;;;;;4994233;28;20675;-96
2021/07/06 09:12:19;;;;;;;1.10;1.00;;;27.50;99.90;;;;;;4993493;28;20879;-96
2021/07/06 09:14:48;;;;;;;2.90;1.30;;;27.60;99.90;;;;;;4995227;28;20652;-96
2021/07/06 09:17:18;;;;;;;1.53;1.20;;;28.10;99.90;;;;;;4995985;28;20649;-96
2021/07/06 09:19:47;;;;;;;1.27;1.17;;;28.10;99.90;;;;;;4997194;28;20704;-96
2021/07/06 09:22:17;;;;;;;1.90;0.80;;;28.10;99.90;;;;;;4998653;28;20648;-96
2021/07/06 09:24:45;;;;;;;1.33;1.10;;;27.70;99.90;;;;;;4995335;28;20664;-96
2021/07/06 09:27:27;;;;;;;1.30;1.20;;;27.30;99.90;;;;;;4997526;28;21150;-96
2021/07/06 09:30:15;;;;;;;1.70;1.20;;;27.10;99.90;;;;;;4992494;28;20672;-95
2021/07/06 09:32:46;;;;;;;1.83;1.73;;;26.90;99.90;;;;;;4994532;28;20636;-95
2021/07/06 09:35:15;;;;;;;4.10;1.20;;;26.70;99.90;;;;;;4991483;28;20667;-95
2021/07/06 09:37:50;;;;;;;2.50;1.50;;;26.50;99.90;;;;;;4993040;28;20644;-95
2021/07/06 09:40:29;;;;;;;5.03;1.90;;;25.90;99.90;;;;;;4995044;28;21069;-94
2021/07/06 09:43:21;;;;;;;2.63;1.90;;;24.30;99.90;;;;;;4993888;28;20808;-93
2021/07/06 09:46:02;;;;;;;5.73;2.03;;;23.70;99.90;;;;;;4993964;28;20628;-96
2021/07/06 09:48:32;;;;;;;5.00;1.70;;;23.30;99.90;;;;;;4995614;28;20637;-95
2021/07/06 09:51:19;;;;;;;3.30;1.17;;;23.00;99.90;;;;;;4999028;28;20638;-95
2021/07/06 09:53:48;;;;;;;2.93;0.97;;;22.80;99.90;;;;;;4995505;28;20659;-95
2021/07/06 09:56:18;;;;;;;4.83;1.10;;;22.80;99.90;;;;;;4995799;28;21155;-95
2021/07/06 09:58:56;;;;;;;3.93;0.70;;;22.50;99.90;;;;;;4995459;28;20745;-95
2021/07/06 10:01:24;;;;;;;1.00;0.80;;;22.50;99.90;;;;;;4995298;28;20640;-94
2021/07/06 10:03:55;;;;;;;2.60;1.03;;;22.50;99.90;;;;;;5006756;28;20663;-95
2021/07/06 10:06:24;;;;;;;4.50;0.60;;;23.00;99.90;;;;;;5010195;28;20663;-94
2021/07/06 10:08:52;;;;;;;0.77;0.60;;;23.80;99.90;;;;;;5002623;28;21194;-95
2021/07/06 10:11:20;;;;;;;0.80;0.60;;;24.40;99.90;;;;;;4995204;28;21286;-96
2021/07/06 10:13:47;;;;;;;1.03;0.63;;;24.60;99.90;;;;;;4990805;28;20643;-95
2021/07/06 10:16:16;;;;;;;1.40;0.63;;;24.60;99.90;;;;;;4994386;28;20667;-95
2021/07/06 10:18:49;;;;;;;0.53;0.50;;;25.00;99.90;;;;;;4994292;28;20648;-95
2021/07/06 10:21:17;;;;;;;2.60;0.60;;;24.60;99.90;;;;;;4991650;28;20663;-95
2021/07/06 10:23:48;;;;;;;0.70;0.50;;;24.50;99.90;;;;;;4994982;28;20629;-95
2021/07/06 10:26:23;;;;;;;0.60;0.50;;;24.50;99.90;;;;;;4992041;28;20640;-95
2021/07/06 10:28:52;;;;;;;1.03;0.50;;;24.70;99.90;;;;;;4993210;28;20805;-95
2021/07/06 10:31:20;;;;;;;0.80;0.60;;;24.90;99.90;;;;;;4992997;28;20667;-95
2021/07/06 10:33:49;;;;;;;0.70;0.70;;;24.80;99.90;;;;;;5000602;28;20633;-94
2021/07/06 10:36:18;;;;;;;1.07;0.60;;;24.60;99.90;;;;;;5012662;28;20675;-93
2021/07/06 10:38:48;;;;;;;1.57;0.70;;;24.50;99.90;;;;;;5001453;28;20674;-93
2021/07/06 10:41:20;;;;;;;1.20;0.80;;;24.60;99.90;;;;;;4991058;28;20646;-94
2021/07/06 10:44:00;;;;;;;1.47;0.77;;;24.60;99.90;;;;;;4989103;28;20652;-95
2021/07/06 10:46:44;;;;;;;0.70;0.70;;;24.80;99.90;;;;;;4986479;28;20621;-94
2021/07/06 10:49:14;;;;;;;1.40;0.70;;;24.70;99.90;;;;;;4988690;28;20668;-94
2021/07/06 10:51:51;;;;;;;1.57;0.60;;;24.70;99.90;;;;;;4989515;28;20635;-94
2021/07/06 10:54:26;;;;;;;1.27;0.50;;;24.20;99.90;;;;;;4988500;28;20723;-93
2021/07/06 10:56:56;;;;;;;1.67;1.00;;;24.00;99.90;;;;;;4989713;28;20667;-94
2021/07/06 10:59:24;;;;;;;1.07;0.57;;;24.10;99.90;;;;;;4990380;28;20676;-94
2021/07/06 11:02:01;;;;;;;1.10;1.00;;;24.40;99.90;;;;;;4993279;28;20637;-95
2021/07/06 11:05:20;;;;;;;0.77;0.63;;;24.00;99.90;;;;;;4992216;28;20620;-93
2021/07/06 11:07:52;;;;;;;1.50;0.80;;;24.30;99.90;;;;;;4986500;28;20629;-93
2021/07/06 11:10:22;;;;;;;1.77;0.77;;;24.50;99.90;;;;;;4986516;28;20660;-93
2021/07/06 11:12:50;;;;;;;1.73;0.70;;;24.60;99.90;;;;;;4993889;28;20640;-93
2021/07/06 11:15:27;;;;;;;1.10;0.50;;;24.30;99.90;;;;;;4991238;28;20712;-94
2021/07/06 11:18:03;;;;;;;0.93;0.63;;;23.90;99.90;;;;;;4988153;28;20640;-94
2021/07/06 11:20:55;;;;;;;0.77;0.60;;;24.00;99.90;;;;;;4989221;28;21215;-93
2021/07/06 11:23:32;;;;;;;1.37;0.90;;;24.30;99.90;;;;;;4988829;28;20644;-93
2021/07/06 11:26:05;;;;;;;1.67;0.63;;;24.80;99.90;;;;;;4991742;28;20715;-95
2021/07/06 11:28:50;;;;;;;1.10;1.00;;;25.10;99.90;;;;;;4991416;28;20629;-95
2021/07/06 11:31:19;;;;;;;0.70;0.67;;;25.40;99.90;;;;;;4991125;28;20635;-95
2021/07/06 11:33:48;;;;;;;2.43;1.00;;;25.60;99.90;;;;;;4990399;28;20655;-96
2021/07/06 11:36:19;;;;;;;2.07;1.00;;;25.40;99.90;;;;;;4988259;28;21322;-95
2021/07/06 11:38:49;;;;;;;3.47;0.77;;;25.30;99.90;;;;;;4988136;28;20727;-95
2021/07/06 11:41:34;;;;;;;1.40;0.53;;;25.20;99.90;;;;;;4993145;28;20975;-96
2021/07/06 11:44:02;;;;;;;2.97;0.80;;;25.20;99.90;;;;;;4987714;28;20664;-95
2021/07/06 11:46:34;;;;;;;3.90;1.00;;;25.00;99.90;;;;;;4991163;28;21127;-92
2021/07/06 11:49:02;;;;;;;1.17;1.07;;;24.50;99.90;;;;;;4992149;28;20660;-93
2021/07/06 11:51:29;;;;;;;0.90;0.70;;;24.30;99.90;;;;;;4983862;28;20676;-93
2021/07/06 11:54:22;;;;;;;2.20;1.00;;;24.30;99.90;;;;;;4987450;28;20660;-93
2021/07/06 11:56:49;;;;;;;1.10;0.70;;;24.30;99.90;;;;;;4988109;28;20751;-92
2021/07/06 11:59:20;;;;;;;1.27;0.80;;;24.20;99.90;;;;;;4990637;28;20692;-92
2021/07/06 12:01:53;;;;;;;1.50;1.40;;;24.20;99.90;;;;;;5002071;28;20617;-92
2021/07/06 12:04:24;;;;;;;1.17;0.97;;;24.30;99.90;;;;;;5005954;28;20713;-93
2021/07/06 12:07:03;;;;;;;1.43;1.27;;;24.40;99.90;;;;;;5010321;28;20635;-92
2021/07/06 12:10:02;;;;;;;1.00;0.90;;;24.40;99.90;;;;;;4990332;28;20679;-92
2021/07/06 12:15:45;;;;;;;2.10;1.00;;;24.10;99.90;;;;;;4983326;28;20621;-93
2021/07/06 12:18:30;;;;;;;0.90;0.90;;;24.50;99.90;;;;;;4986707;28;20651;-92
2021/07/06 12:21:24;;;;;;;0.83;0.70;;;24.70;99.90;;;;;;4983365;28;21175;-92
2021/07/06 12:24:12;;;;;;;0.60;0.60;;;24.90;99.90;;;;;;4982292;28;20636;-92
2021/07/06 12:26:44;;;;;;;2.93;1.23;;;25.50;99.90;;;;;;4988292;28;21052;-93
2021/07/06 12:29:31;;;;;;;1.10;0.60;;;25.60;99.90;;;;;;4982521;28;20675;-94
2021/07/06 12:32:12;;;;;;;3.27;0.60;;;25.10;99.90;;;;;;4986892;28;20699;-93
2021/07/06 12:34:50;;;;;;;1.07;0.50;;;24.70;99.90;;;;;;4986911;28;20624;-93
2021/07/06 12:37:25;;;;;;;0.80;0.60;;;24.50;99.90;;;;;;4987709;28;20682;-95
2021/07/06 12:40:05;;;;;;;1.43;0.60;;;24.20;99.90;;;;;;4986374;28;20758;-93
2021/07/06 12:42:53;;;;;;;0.70;0.60;;;24.20;99.90;;;;;;4990547;28;21069;-94
2021/07/06 12:45:24;;;;;;;1.20;0.60;;;24.30;99.90;;;;;;4986974;28;20622;-93
2021/07/06 12:48:04;;;;;;;0.60;0.50;;;24.40;99.90;;;;;;4990723;28;20884;-94
2021/07/06 12:50:38;;;;;;;3.23;0.67;;;24.40;99.90;;;;;;4988172;28;20660;-94
2021/07/06 12:53:28;;;;;;;1.27;0.70;;;24.50;99.90;;;;;;4991828;28;20699;-94
2021/07/06 12:56:13;;;;;;;1.53;0.93;;;24.70;99.90;;;;;;4989808;28;20712;-94
2021/07/06 12:58:43;;;;;;;0.93;0.80;;;24.80;99.90;;;;;;5011551;28;20601;-93
2021/07/06 13:01:21;;;;;;;0.77;0.70;;;24.70;99.90;;;;;;5007094;28;20711;-93
2021/07/06 13:03:58;;;;;;;0.70;0.60;;;24.80;99.90;;;;;;4993853;28;20695;-94
2021/07/06 13:06:26;;;;;;;1.10;1.00;;;24.80;99.90;;;;;;4990426;28;20620;-95
2021/07/06 13:08:54;;;;;;;2.67;0.90;;;24.40;99.90;;;;;;4981614;28;20673;-95
2021/07/06 13:11:26;;;;;;;1.80;0.70;;;24.40;99.90;;;;;;4985499;28;21234;-95
2021/07/06 13:20:15;;;;;;;1.67;1.03;;;24.10;99.90;;;;;;4989069;28;20705;-95
2021/07/06 13:22:44;;;;;;;1.63;1.10;;;23.90;99.90;;;;;;4989773;28;21039;-94
2021/07/06 13:25:12;;;;;;;2.53;0.97;;;23.80;99.90;;;;;;4992752;28;20652;-94
2021/07/06 13:30:57;;;;;;;1.30;0.90;;;23.50;99.90;;;;;;4970530;28;20712;-93
2021/07/06 13:33:27;;;;;;;2.53;0.70;;;23.30;99.90;;;;;;4985330;28;20736;-93
2021/07/06 13:36:10;;;;;;;1.83;0.67;;;23.30;99.90;;;;;;4985700;28;20644;-94
2021/07/06 13:38:48;;;;;;;3.03;0.80;;;23.40;99.90;;;;;;4980479;28;20653;-93
2021/07/06 13:41:15;;;;;;;1.20;0.80;;;23.60;99.90;;;;;;4986100;28;20648;-90
2021/07/06 13:43:46;;;;;;;2.97;1.00;;;23.60;99.90;;;;;;4987291;28;20621;-94
2021/07/06 13:46:42;;;;;;;1.53;0.70;;;23.70;99.90;;;;;;4989392;28;20648;-93
2021/07/06 13:49:11;;;;;;;1.73;1.30;;;23.80;99.90;;;;;;4987000;28;20640;-94
2021/07/06 13:51:43;;;;;;;1.57;1.00;;;23.90;99.90;;;;;;4988981;28;20696;-93
2021/07/06 13:54:10;;;;;;;4.87;0.87;;;24.10;99.90;;;;;;4988578;28;21190;-92
2021/07/06 13:56:37;;;;;;;1.70;0.80;;;24.20;99.90;;;;;;4991786;28;20737;-95
2021/07/06 13:59:05;;;;;;;0.87;0.73;;;24.30;99.90;;;;;;4993381;28;20692;-94
2021/07/06 14:01:32;;;;;;;1.30;0.70;;;24.60;99.90;;;;;;4992342;28;20793;-92